sensor_id;sensor_type;location;lat;lon;timestamp;pressure;altitude;pressure_sealevel;temperature;humidity
57644;BME280;43474;46.510;6.686;2023-04-19T00:00:26;96616.19;;;8.26;100.00
57644;BME280;43474;46.510;6.686;2023-04-19T00:03:12;96610.09;;;8.01;100.00
57644;BME280;43474;46.510;6.686;2023-04-19T00:05:38;96599.06;;;7.86;100.00
57644;BME280;43474;46.510;6.686;2023-04-19T00:08:06;96620.13;;;7.92;100.00
57644;BME280;43474;46.510;6.686;2023-04-19T00:10:32;96622.75;;;7.92;100.00
57644;BME280;43474;46.510;6.686;2023-04-19T00:13:00;96615.94;;;7.78;100.00
57644;BME280;43474;46.510;6.686;2023-04-19T00:15:26;96617.38;;;7.74;100.00
57644;BME280;43474;46.510;6.686;2023-04-19T00:17:52;96627.88;;;7.81;100.00
57644;BME280;43474;46.510;6.686;2023-04-19T00:20:17;96631.53;;;7.86;100.00
57644;BME280;43474;46.510;6.686;2023-04-19T00:22:43;96617.16;;;7.75;100.00
57644;BME280;43474;46.510;6.686;2023-04-19T00:25:08;96607.88;;;7.73;100.00
57644;BME280;43474;46.510;6.686;2023-04-19T00:27:34;96620.47;;;7.71;100.00
57644;BME280;43474;46.510;6.686;2023-04-19T00:30:00;96626.34;;;7.73;100.00
57644;BME280;43474;46.510;6.686;2023-04-19T00:32:26;96622.19;;;7.84;100.00
57644;BME280;43474;46.510;6.686;2023-04-19T00:34:51;96609.94;;;7.71;100.00
57644;BME280;43474;46.510;6.686;2023-04-19T00:37:17;96614.84;;;7.61;100.00
57644;BME280;43474;46.510;6.686;2023-04-19T00:39:43;96627.78;;;7.69;100.00
57644;BME280;43474;46.510;6.686;2023-04-19T00:42:08;96637.28;;;7.76;100.00
57644;BME280;43474;46.510;6.686;2023-04-19T00:44:34;96605.31;;;7.60;100.00
57644;BME280;43474;46.510;6.686;2023-04-19T00:47:00;96611.22;;;7.55;100.00
57644;BME280;43474;46.510;6.686;2023-04-19T00:49:25;96628.84;;;7.61;100.00
57644;BME280;43474;46.510;6.686;2023-04-19T00:51:52;96620.50;;;7.64;100.00
57644;BME280;43474;46.510;6.686;2023-04-19T00:54:18;96633.66;;;7.71;100.00
57644;BME280;43474;46.510;6.686;2023-04-19T00:56:45;96636.03;;;7.79;100.00
57644;BME280;43474;46.510;6.686;2023-04-19T00:59:12;96611.94;;;7.69;100.00
57644;BME280;43474;46.510;6.686;2023-04-19T01:01:39;96610.06;;;7.51;100.00
57644;BME280;43474;46.510;6.686;2023-04-19T01:04:04;96632.53;;;7.54;100.00
57644;BME280;43474;46.510;6.686;2023-04-19T01:06:31;96626.28;;;7.48;100.00
57644;BME280;43474;46.510;6.686;2023-04-19T01:08:57;96628.53;;;7.44;100.00
57644;BME280;43474;46.510;6.686;2023-04-19T01:11:23;96619.22;;;7.42;100.00
57644;BME280;43474;46.510;6.686;2023-04-19T01:13:49;96610.28;;;7.43;100.00
57644;BME280;43474;46.510;6.686;2023-04-19T01:16:15;96597.78;;;7.32;100.00
57644;BME280;43474;46.510;6.686;2023-04-19T01:18:40;96613.50;;;7.45;100.00
57644;BME280;43474;46.510;6.686;2023-04-19T01:21:07;96582.00;;;7.25;100.00
57644;BME280;43474;46.510;6.686;2023-04-19T01:23:33;96619.94;;;7.56;100.00
57644;BME280;43474;46.510;6.686;2023-04-19T01:26:00;96615.50;;;7.56;100.00
57644;BME280;43474;46.510;6.686;2023-04-19T01:28:26;96615.16;;;7.46;100.00
57644;BME280;43474;46.510;6.686;2023-04-19T01:30:51;96606.50;;;7.32;100.00
57644;BME280;43474;46.510;6.686;2023-04-19T01:33:21;96622.22;;;7.45;100.00
57644;BME280;43474;46.510;6.686;2023-04-19T01:35:47;96622.03;;;7.47;100.00
57644;BME280;43474;46.510;6.686;2023-04-19T01:38:13;96622.69;;;7.36;100.00
57644;BME280;43474;46.510;6.686;2023-04-19T01:40:39;96624.31;;;7.37;100.00
57644;BME280;43474;46.510;6.686;2023-04-19T01:43:06;96610.00;;;7.19;100.00
57644;BME280;43474;46.510;6.686;2023-04-19T01:45:32;96606.09;;;7.29;100.00
57644;BME280;43474;46.510;6.686;2023-04-19T01:47:59;96614.25;;;7.20;100.00
57644;BME280;43474;46.510;6.686;2023-04-19T01:50:26;96608.00;;;7.15;100.00
57644;BME280;43474;46.510;6.686;2023-04-19T01:52:51;96627.59;;;7.25;100.00
57644;BME280;43474;46.510;6.686;2023-04-19T01:55:17;96613.84;;;7.23;100.00
57644;BME280;43474;46.510;6.686;2023-04-19T01:57:43;96618.53;;;7.15;100.00
57644;BME280;43474;46.510;6.686;2023-04-19T02:00:09;96625.22;;;7.11;100.00
57644;BME280;43474;46.510;6.686;2023-04-19T02:02:38;96614.78;;;6.97;100.00
57644;BME280;43474;46.510;6.686;2023-04-19T02:05:07;96609.28;;;6.99;100.00
57644;BME280;43474;46.510;6.686;2023-04-19T02:07:32;96622.06;;;7.02;100.00
57644;BME280;43474;46.510;6.686;2023-04-19T02:09:58;96604.31;;;6.78;100.00
57644;BME280;43474;46.510;6.686;2023-04-19T02:12:28;96630.34;;;6.99;100.00
57644;BME280;43474;46.510;6.686;2023-04-19T02:14:56;96621.28;;;6.88;100.00
57644;BME280;43474;46.510;6.686;2023-04-19T02:17:24;96616.22;;;6.87;100.00
57644;BME280;43474;46.510;6.686;2023-04-19T02:19:51;96624.94;;;6.87;100.00
57644;BME280;43474;46.510;6.686;2023-04-19T02:22:20;96623.31;;;6.86;100.00
57644;BME280;43474;46.510;6.686;2023-04-19T02:24:48;96625.13;;;6.86;100.00
57644;BME280;43474;46.510;6.686;2023-04-19T02:27:13;96622.13;;;6.82;100.00
57644;BME280;43474;46.510;6.686;2023-04-19T02:29:39;96616.66;;;6.77;100.00
57644;BME280;43474;46.510;6.686;2023-04-19T02:32:05;96623.94;;;6.82;100.00
57644;BME280;43474;46.510;6.686;2023-04-19T02:34:32;96597.25;;;6.58;100.00
57644;BME280;43474;46.510;6.686;2023-04-19T02:36:58;96623.75;;;6.70;100.00
57644;BME280;43474;46.510;6.686;2023-04-19T02:39:23;96601.91;;;6.56;100.00
57644;BME280;43474;46.510;6.686;2023-04-19T02:41:49;96614.66;;;6.72;100.00
57644;BME280;43474;46.510;6.686;2023-04-19T02:44:15;96628.00;;;6.71;100.00
57644;BME280;43474;46.510;6.686;2023-04-19T02:46:44;96624.19;;;6.60;100.00
57644;BME280;43474;46.510;6.686;2023-04-19T02:49:12;96628.66;;;6.66;100.00
57644;BME280;43474;46.510;6.686;2023-04-19T02:51:37;96632.88;;;6.61;100.00
57644;BME280;43474;46.510;6.686;2023-04-19T02:54:03;96623.81;;;6.50;100.00
57644;BME280;43474;46.510;6.686;2023-04-19T02:56:29;96635.91;;;6.71;100.00
57644;BME280;43474;46.510;6.686;2023-04-19T02:58:54;96624.81;;;6.49;100.00
57644;BME280;43474;46.510;6.686;2023-04-19T03:01:21;96640.00;;;6.54;100.00
57644;BME280;43474;46.510;6.686;2023-04-19T03:03:47;96626.47;;;6.37;100.00
57644;BME280;43474;46.510;6.686;2023-04-19T03:06:12;96633.94;;;6.40;100.00
57644;BME280;43474;46.510;6.686;2023-04-19T03:08:38;96642.66;;;6.47;100.00
57644;BME280;43474;46.510;6.686;2023-04-19T03:11:05;96618.34;;;6.45;100.00
57644;BME280;43474;46.510;6.686;2023-04-19T03:13:31;96625.22;;;6.46;100.00
57644;BME280;43474;46.510;6.686;2023-04-19T03:15:56;96637.56;;;6.45;100.00
57644;BME280;43474;46.510;6.686;2023-04-19T03:18:22;96626.03;;;6.40;100.00
57644;BME280;43474;46.510;6.686;2023-04-19T03:20:47;96636.38;;;6.35;100.00
57644;BME280;43474;46.510;6.686;2023-04-19T03:23:13;96616.78;;;6.17;100.00
57644;BME280;43474;46.510;6.686;2023-04-19T03:25:39;96632.13;;;6.20;100.00
57644;BME280;43474;46.510;6.686;2023-04-19T03:28:04;96644.06;;;6.16;100.00
57644;BME280;43474;46.510;6.686;2023-04-19T03:30:30;96619.78;;;6.01;100.00
57644;BME280;43474;46.510;6.686;2023-04-19T03:32:56;96621.03;;;5.99;100.00
57644;BME280;43474;46.510;6.686;2023-04-19T03:35:22;96634.75;;;6.20;100.00
57644;BME280;43474;46.510;6.686;2023-04-19T03:37:51;96615.34;;;6.02;100.00
57644;BME280;43474;46.510;6.686;2023-04-19T03:40:16;96613.53;;;6.09;100.00
57644;BME280;43474;46.510;6.686;2023-04-19T03:42:42;96638.44;;;6.13;100.00
57644;BME280;43474;46.510;6.686;2023-04-19T03:45:08;96622.84;;;6.05;100.00
57644;BME280;43474;46.510;6.686;2023-04-19T03:47:34;96635.19;;;6.17;100.00
57644;BME280;43474;46.510;6.686;2023-04-19T03:50:00;96646.69;;;6.16;100.00
57644;BME280;43474;46.510;6.686;2023-04-19T03:52:26;96643.28;;;6.16;100.00
57644;BME280;43474;46.510;6.686;2023-04-19T03:54:51;96629.31;;;6.15;100.00
57644;BME280;43474;46.510;6.686;2023-04-19T03:57:17;96615.34;;;6.02;100.00
57644;BME280;43474;46.510;6.686;2023-04-19T03:59:43;96637.59;;;6.19;100.00
57644;BME280;43474;46.510;6.686;2023-04-19T04:02:08;96634.38;;;6.10;100.00
57644;BME280;43474;46.510;6.686;2023-04-19T04:04:34;96632.97;;;6.08;100.00
57644;BME280;43474;46.510;6.686;2023-04-19T04:07:00;96588.59;;;5.85;100.00
57644;BME280;43474;46.510;6.686;2023-04-19T04:09:25;96629.91;;;6.04;100.00
57644;BME280;43474;46.510;6.686;2023-04-19T04:11:51;96635.78;;;6.00;100.00
57644;BME280;43474;46.510;6.686;2023-04-19T04:14:16;96632.56;;;5.98;100.00
57644;BME280;43474;46.510;6.686;2023-04-19T04:16:42;96621.03;;;5.92;100.00
57644;BME280;43474;46.510;6.686;2023-04-19T04:19:08;96623.88;;;5.97;100.00
57644;BME280;43474;46.510;6.686;2023-04-19T04:21:34;96596.91;;;5.75;100.00
57644;BME280;43474;46.510;6.686;2023-04-19T04:23:59;96586.19;;;5.70;100.00
57644;BME280;43474;46.510;6.686;2023-04-19T04:26:26;96630.31;;;5.94;100.00
57644;BME280;43474;46.510;6.686;2023-04-19T04:28:55;96628.47;;;5.88;100.00
57644;BME280;43474;46.510;6.686;2023-04-19T04:31:22;96642.44;;;5.89;100.00
57644;BME280;43474;46.510;6.686;2023-04-19T04:33:47;96640.84;;;5.94;100.00
57644;BME280;43474;46.510;6.686;2023-04-19T04:36:13;96635.59;;;5.94;100.00
57644;BME280;43474;46.510;6.686;2023-04-19T04:38:38;96634.78;;;5.94;100.00
57644;BME280;43474;46.510;6.686;2023-04-19T04:41:04;96652.97;;;5.95;100.00
57644;BME280;43474;46.510;6.686;2023-04-19T04:43:30;96619.34;;;5.71;100.00
57644;BME280;43474;46.510;6.686;2023-04-19T04:45:56;96643.22;;;5.89;100.00
57644;BME280;43474;46.510;6.686;2023-04-19T04:48:22;96652.16;;;5.88;100.00
57644;BME280;43474;46.510;6.686;2023-04-19T04:50:48;96656.22;;;5.98;100.00
57644;BME280;43474;46.510;6.686;2023-04-19T04:53:13;96636.97;;;5.84;100.00
57644;BME280;43474;46.510;6.686;2023-04-19T04:55:39;96661.88;;;5.94;100.00
57644;BME280;43474;46.510;6.686;2023-04-19T04:58:05;96641.84;;;5.93;100.00
57644;BME280;43474;46.510;6.686;2023-04-19T05:00:31;96656.63;;;6.01;100.00
57644;BME280;43474;46.510;6.686;2023-04-19T05:02:57;96644.50;;;5.93;100.00
57644;BME280;43474;46.510;6.686;2023-04-19T05:05:23;96656.44;;;6.03;100.00
57644;BME280;43474;46.510;6.686;2023-04-19T05:07:49;96659.88;;;6.10;100.00
57644;BME280;43474;46.510;6.686;2023-04-19T05:10:14;96652.19;;;6.08;100.00
57644;BME280;43474;46.510;6.686;2023-04-19T05:12:40;96660.69;;;6.10;100.00
57644;BME280;43474;46.510;6.686;2023-04-19T05:15:07;96643.09;;;5.98;100.00
57644;BME280;43474;46.510;6.686;2023-04-19T05:17:32;96646.72;;;6.03;100.00
57644;BME280;43474;46.510;6.686;2023-04-19T05:19:58;96634.78;;;6.07;100.00
57644;BME280;43474;46.510;6.686;2023-04-19T05:22:24;96633.97;;;6.13;100.00
57644;BME280;43474;46.510;6.686;2023-04-19T05:24:50;96653.78;;;6.29;100.00
57644;BME280;43474;46.510;6.686;2023-04-19T05:27:15;96633.97;;;6.20;100.00
57644;BME280;43474;46.510;6.686;2023-04-19T05:29:41;96630.91;;;6.30;100.00
57644;BME280;43474;46.510;6.686;2023-04-19T05:32:06;96609.88;;;6.16;100.00
57644;BME280;43474;46.510;6.686;2023-04-19T05:34:33;96633.72;;;6.41;100.00
57644;BME280;43474;46.510;6.686;2023-04-19T05:36:59;96655.22;;;6.52;100.00
57644;BME280;43474;46.510;6.686;2023-04-19T05:39:25;96653.94;;;6.61;100.00
57644;BME280;43474;46.510;6.686;2023-04-19T05:41:51;96660.00;;;6.74;100.00
57644;BME280;43474;46.510;6.686;2023-04-19T05:44:16;96631.03;;;6.74;100.00
57644;BME280;43474;46.510;6.686;2023-04-19T05:46:42;96650.41;;;7.00;100.00
57644;BME280;43474;46.510;6.686;2023-04-19T05:49:08;96651.94;;;7.21;100.00
57644;BME280;43474;46.510;6.686;2023-04-19T05:51:33;96647.25;;;7.36;100.00
57644;BME280;43474;46.510;6.686;2023-04-19T05:53:59;96651.75;;;7.67;100.00
57644;BME280;43474;46.510;6.686;2023-04-19T05:56:25;96633.56;;;7.84;100.00
57644;BME280;43474;46.510;6.686;2023-04-19T05:58:51;96616.22;;;7.95;100.00
57644;BME280;43474;46.510;6.686;2023-04-19T06:01:16;96624.63;;;8.10;100.00
57644;BME280;43474;46.510;6.686;2023-04-19T06:03:42;96657.34;;;8.34;100.00
57644;BME280;43474;46.510;6.686;2023-04-19T06:06:08;96647.19;;;8.38;100.00
57644;BME280;43474;46.510;6.686;2023-04-19T06:08:33;96643.19;;;8.53;100.00
57644;BME280;43474;46.510;6.686;2023-04-19T06:10:59;96651.63;;;8.62;100.00
57644;BME280;43474;46.510;6.686;2023-04-19T06:13:25;96653.41;;;8.68;100.00
57644;BME280;43474;46.510;6.686;2023-04-19T06:15:51;96651.94;;;8.72;100.00
57644;BME280;43474;46.510;6.686;2023-04-19T06:18:16;96647.53;;;8.85;100.00
57644;BME280;43474;46.510;6.686;2023-04-19T06:20:42;96646.22;;;8.75;100.00
57644;BME280;43474;46.510;6.686;2023-04-19T06:23:08;96655.69;;;8.83;100.00
57644;BME280;43474;46.510;6.686;2023-04-19T06:25:33;96657.38;;;8.77;100.00
57644;BME280;43474;46.510;6.686;2023-04-19T06:28:00;96662.59;;;8.84;100.00
57644;BME280;43474;46.510;6.686;2023-04-19T06:30:25;96654.31;;;8.80;100.00
57644;BME280;43474;46.510;6.686;2023-04-19T06:32:51;96654.47;;;8.86;100.00
57644;BME280;43474;46.510;6.686;2023-04-19T06:35:17;96651.31;;;8.95;100.00
57644;BME280;43474;46.510;6.686;2023-04-19T06:37:42;96645.19;;;8.95;100.00
57644;BME280;43474;46.510;6.686;2023-04-19T06:40:08;96651.44;;;9.00;100.00
57644;BME280;43474;46.510;6.686;2023-04-19T06:42:34;96648.06;;;8.93;100.00
57644;BME280;43474;46.510;6.686;2023-04-19T06:45:00;96661.94;;;9.07;100.00
57644;BME280;43474;46.510;6.686;2023-04-19T06:47:26;96668.25;;;9.06;100.00
57644;BME280;43474;46.510;6.686;2023-04-19T06:49:52;96655.53;;;9.15;100.00
57644;BME280;43474;46.510;6.686;2023-04-19T06:52:18;96666.06;;;9.21;100.00
57644;BME280;43474;46.510;6.686;2023-04-19T06:54:50;96666.09;;;9.33;100.00
57644;BME280;43474;46.510;6.686;2023-04-19T06:57:16;96657.94;;;9.35;100.00
57644;BME280;43474;46.510;6.686;2023-04-19T06:59:42;96640.69;;;9.32;100.00
57644;BME280;43474;46.510;6.686;2023-04-19T07:02:08;96651.41;;;9.37;100.00
57644;BME280;43474;46.510;6.686;2023-04-19T07:04:34;96665.31;;;9.63;100.00
57644;BME280;43474;46.510;6.686;2023-04-19T07:07:02;96660.16;;;9.68;100.00
57644;BME280;43474;46.510;6.686;2023-04-19T07:09:27;96661.19;;;9.67;100.00
57644;BME280;43474;46.510;6.686;2023-04-19T07:11:53;96648.25;;;9.77;100.00
57644;BME280;43474;46.510;6.686;2023-04-19T07:14:19;96643.38;;;9.74;100.00
57644;BME280;43474;46.510;6.686;2023-04-19T07:16:46;96667.72;;;9.94;100.00
57644;BME280;43474;46.510;6.686;2023-04-19T07:19:12;96668.94;;;10.10;100.00
57644;BME280;43474;46.510;6.686;2023-04-19T07:21:38;96661.88;;;9.92;100.00
57644;BME280;43474;46.510;6.686;2023-04-19T07:24:07;96659.22;;;9.92;100.00
57644;BME280;43474;46.510;6.686;2023-04-19T07:26:33;96669.81;;;10.04;100.00
57644;BME280;43474;46.510;6.686;2023-04-19T07:28:59;96672.16;;;10.12;100.00
57644;BME280;43474;46.510;6.686;2023-04-19T07:31:26;96618.13;;;9.90;100.00
57644;BME280;43474;46.510;6.686;2023-04-19T07:33:52;96660.84;;;10.35;100.00
57644;BME280;43474;46.510;6.686;2023-04-19T07:36:18;96629.63;;;10.37;100.00
57644;BME280;43474;46.510;6.686;2023-04-19T07:38:44;96647.59;;;10.58;100.00
57644;BME280;43474;46.510;6.686;2023-04-19T07:41:10;96631.00;;;10.51;100.00
57644;BME280;43474;46.510;6.686;2023-04-19T07:43:36;96634.78;;;10.44;100.00
57644;BME280;43474;46.510;6.686;2023-04-19T07:46:08;96657.97;;;10.72;100.00
57644;BME280;43474;46.510;6.686;2023-04-19T07:48:34;96653.56;;;10.77;100.00
57644;BME280;43474;46.510;6.686;2023-04-19T07:51:14;96658.75;;;10.96;100.00
57644;BME280;43474;46.510;6.686;2023-04-19T07:53:45;96652.88;;;10.82;100.00
57644;BME280;43474;46.510;6.686;2023-04-19T07:56:11;96651.84;;;10.95;100.00
57644;BME280;43474;46.510;6.686;2023-04-19T07:58:37;96658.63;;;11.14;100.00
57644;BME280;43474;46.510;6.686;2023-04-19T08:01:04;96663.28;;;11.24;100.00
57644;BME280;43474;46.510;6.686;2023-04-19T08:03:30;96653.38;;;11.31;100.00
57644;BME280;43474;46.510;6.686;2023-04-19T08:05:56;96664.22;;;11.29;100.00
57644;BME280;43474;46.510;6.686;2023-04-19T08:08:22;96651.47;;;11.03;100.00
57644;BME280;43474;46.510;6.686;2023-04-19T08:10:49;96662.31;;;11.01;100.00
57644;BME280;43474;46.510;6.686;2023-04-19T08:13:15;96626.25;;;10.77;100.00
57644;BME280;43474;46.510;6.686;2023-04-19T08:15:41;96663.81;;;10.97;100.00
57644;BME280;43474;46.510;6.686;2023-04-19T08:18:06;96654.28;;;10.84;100.00
57644;BME280;43474;46.510;6.686;2023-04-19T08:20:32;96665.91;;;10.83;100.00
57644;BME280;43474;46.510;6.686;2023-04-19T08:23:01;96622.25;;;10.74;100.00
57644;BME280;43474;46.510;6.686;2023-04-19T08:25:27;96666.34;;;11.04;100.00
57644;BME280;43474;46.510;6.686;2023-04-19T08:27:57;96647.19;;;11.13;100.00
57644;BME280;43474;46.510;6.686;2023-04-19T08:30:27;96631.25;;;11.13;100.00
57644;BME280;43474;46.510;6.686;2023-04-19T08:32:58;96628.38;;;11.55;100.00
57644;BME280;43474;46.510;6.686;2023-04-19T08:35:33;96640.00;;;12.45;100.00
57644;BME280;43474;46.510;6.686;2023-04-19T08:38:02;96651.34;;;12.74;100.00
57644;BME280;43474;46.510;6.686;2023-04-19T08:40:31;96644.97;;;14.44;100.00
57644;BME280;43474;46.510;6.686;2023-04-19T08:42:57;96628.00;;;15.60;100.00
57644;BME280;43474;46.510;6.686;2023-04-19T08:45:26;96632.34;;;15.09;100.00
57644;BME280;43474;46.510;6.686;2023-04-19T08:47:56;96646.03;;;16.16;96.49
57644;BME280;43474;46.510;6.686;2023-04-19T08:50:22;96645.88;;;15.60;98.83
57644;BME280;43474;46.510;6.686;2023-04-19T08:52:56;96642.56;;;14.74;100.00
57644;BME280;43474;46.510;6.686;2023-04-19T08:55:34;96653.88;;;14.22;100.00
57644;BME280;43474;46.510;6.686;2023-04-19T08:58:03;96631.78;;;13.68;100.00
57644;BME280;43474;46.510;6.686;2023-04-19T09:00:32;96650.44;;;13.46;100.00
57644;BME280;43474;46.510;6.686;2023-04-19T09:02:58;96658.47;;;13.51;100.00
57644;BME280;43474;46.510;6.686;2023-04-19T09:05:24;96659.53;;;13.50;100.00
57644;BME280;43474;46.510;6.686;2023-04-19T09:07:50;96667.28;;;13.30;100.00
57644;BME280;43474;46.510;6.686;2023-04-19T09:10:18;96660.59;;;13.27;100.00
57644;BME280;43474;46.510;6.686;2023-04-19T09:13:03;96642.28;;;13.53;100.00
57644;BME280;43474;46.510;6.686;2023-04-19T09:15:40;96629.06;;;13.90;100.00
57644;BME280;43474;46.510;6.686;2023-04-19T09:18:07;96645.06;;;14.22;100.00
57644;BME280;43474;46.510;6.686;2023-04-19T09:20:36;96652.59;;;14.30;100.00
57644;BME280;43474;46.510;6.686;2023-04-19T09:23:03;96645.22;;;14.10;100.00
57644;BME280;43474;46.510;6.686;2023-04-19T09:25:30;96655.88;;;14.37;100.00
57644;BME280;43474;46.510;6.686;2023-04-19T09:28:08;96646.59;;;14.77;98.86
57644;BME280;43474;46.510;6.686;2023-04-19T09:30:34;96641.06;;;14.94;99.76
57644;BME280;43474;46.510;6.686;2023-04-19T09:32:59;96637.34;;;14.95;97.34
57644;BME280;43474;46.510;6.686;2023-04-19T09:35:47;96621.66;;;15.04;100.00
57644;BME280;43474;46.510;6.686;2023-04-19T09:38:14;96622.84;;;15.33;97.32
57644;BME280;43474;46.510;6.686;2023-04-19T09:40:40;96628.06;;;15.75;92.33
57644;BME280;43474;46.510;6.686;2023-04-19T09:43:07;96634.47;;;15.74;96.19
57644;BME280;43474;46.510;6.686;2023-04-19T09:45:43;96626.63;;;15.47;90.57
57644;BME280;43474;46.510;6.686;2023-04-19T09:48:10;96614.22;;;15.21;94.35
57644;BME280;43474;46.510;6.686;2023-04-19T09:50:50;96621.72;;;16.48;88.28
57644;BME280;43474;46.510;6.686;2023-04-19T09:53:16;96598.72;;;16.47;85.31
57644;BME280;43474;46.510;6.686;2023-04-19T09:55:43;96604.22;;;17.07;87.41
57644;BME280;43474;46.510;6.686;2023-04-19T09:58:08;96609.69;;;17.46;83.15
57644;BME280;43474;46.510;6.686;2023-04-19T10:00:34;96617.00;;;17.25;82.71
57644;BME280;43474;46.510;6.686;2023-04-19T10:03:00;96606.97;;;16.81;81.40
57644;BME280;43474;46.510;6.686;2023-04-19T10:05:27;96583.47;;;16.32;82.52
57644;BME280;43474;46.510;6.686;2023-04-19T10:07:52;96566.81;;;16.86;78.40
57644;BME280;43474;46.510;6.686;2023-04-19T10:10:20;96561.00;;;17.28;77.53
57644;BME280;43474;46.510;6.686;2023-04-19T10:12:50;96580.28;;;17.25;80.45
57644;BME280;43474;46.510;6.686;2023-04-19T10:15:19;96581.63;;;17.28;77.78
57644;BME280;43474;46.510;6.686;2023-04-19T10:17:46;96596.56;;;17.39;72.75
57644;BME280;43474;46.510;6.686;2023-04-19T10:20:20;96588.22;;;18.00;82.44
57644;BME280;43474;46.510;6.686;2023-04-19T10:22:47;96589.97;;;18.15;77.68
57644;BME280;43474;46.510;6.686;2023-04-19T10:25:15;96557.50;;;18.17;72.76
57644;BME280;43474;46.510;6.686;2023-04-19T10:27:42;96555.97;;;17.66;76.00
57644;BME280;43474;46.510;6.686;2023-04-19T10:30:24;96582.94;;;17.90;71.41
57644;BME280;43474;46.510;6.686;2023-04-19T10:32:54;96577.31;;;18.21;79.90
57644;BME280;43474;46.510;6.686;2023-04-19T10:35:25;96574.78;;;18.34;74.86
57644;BME280;43474;46.510;6.686;2023-04-19T10:38:08;96561.81;;;18.13;78.83
57644;BME280;43474;46.510;6.686;2023-04-19T10:41:01;96573.25;;;18.23;75.55
57644;BME280;43474;46.510;6.686;2023-04-19T10:45:57;96559.63;;;18.49;72.62
57644;BME280;43474;46.510;6.686;2023-04-19T10:53:55;96551.94;;;18.08;71.91
57644;BME280;43474;46.510;6.686;2023-04-19T11:01:38;96546.63;;;18.03;73.51
57644;BME280;43474;46.510;6.686;2023-04-19T11:07:02;96522.81;;;18.25;71.81
57644;BME280;43474;46.510;6.686;2023-04-19T11:09:39;96530.72;;;18.65;73.98
57644;BME280;43474;46.510;6.686;2023-04-19T11:12:11;96503.19;;;18.30;68.01
57644;BME280;43474;46.510;6.686;2023-04-19T11:14:50;96486.72;;;18.13;69.88
57644;BME280;43474;46.510;6.686;2023-04-19T11:17:21;96519.09;;;18.50;73.21
57644;BME280;43474;46.510;6.686;2023-04-19T11:20:02;96506.81;;;18.92;75.44
57644;BME280;43474;46.510;6.686;2023-04-19T11:22:39;96491.56;;;18.64;68.20
57644;BME280;43474;46.510;6.686;2023-04-19T11:27:36;96497.94;;;18.44;69.32
57644;BME280;43474;46.510;6.686;2023-04-19T11:30:15;96489.44;;;18.84;70.71
57644;BME280;43474;46.510;6.686;2023-04-19T11:32:49;96491.84;;;18.62;67.86
57644;BME280;43474;46.510;6.686;2023-04-19T11:35:27;96475.84;;;18.28;71.44
57644;BME280;43474;46.510;6.686;2023-04-19T11:37:54;96472.72;;;18.21;72.13
57644;BME280;43474;46.510;6.686;2023-04-19T11:40:24;96480.13;;;18.00;68.74
57644;BME280;43474;46.510;6.686;2023-04-19T11:42:54;96476.75;;;18.18;71.48
57644;BME280;43474;46.510;6.686;2023-04-19T11:45:38;96466.16;;;18.32;72.53
57644;BME280;43474;46.510;6.686;2023-04-19T11:48:04;96461.28;;;18.34;69.97
57644;BME280;43474;46.510;6.686;2023-04-19T11:50:36;96464.56;;;18.31;69.76
57644;BME280;43474;46.510;6.686;2023-04-19T11:53:22;96463.84;;;18.44;72.38
57644;BME280;43474;46.510;6.686;2023-04-19T11:55:49;96459.56;;;18.43;69.38
57644;BME280;43474;46.510;6.686;2023-04-19T11:58:38;96443.81;;;18.37;73.97
57644;BME280;43474;46.510;6.686;2023-04-19T12:01:11;96453.63;;;18.22;71.77
57644;BME280;43474;46.510;6.686;2023-04-19T12:03:45;96449.00;;;18.28;71.63
57644;BME280;43474;46.510;6.686;2023-04-19T12:06:16;96447.81;;;18.39;72.08
57644;BME280;43474;46.510;6.686;2023-04-19T12:08:45;96434.56;;;18.24;72.07
57644;BME280;43474;46.510;6.686;2023-04-19T12:11:15;96434.97;;;18.36;70.15
57644;BME280;43474;46.510;6.686;2023-04-19T12:13:41;96438.00;;;18.29;70.53
57644;BME280;43474;46.510;6.686;2023-04-19T12:16:09;96425.09;;;18.31;70.58
57644;BME280;43474;46.510;6.686;2023-04-19T12:18:46;96424.25;;;18.60;71.95
57644;BME280;43474;46.510;6.686;2023-04-19T12:21:39;96424.56;;;18.77;72.02
57644;BME280;43474;46.510;6.686;2023-04-19T12:24:05;96420.41;;;18.42;69.52
57644;BME280;43474;46.510;6.686;2023-04-19T12:26:32;96413.56;;;18.55;75.14
57644;BME280;43474;46.510;6.686;2023-04-19T12:28:59;96401.81;;;18.75;72.87
57644;BME280;43474;46.510;6.686;2023-04-19T12:31:25;96412.69;;;18.59;72.91
57644;BME280;43474;46.510;6.686;2023-04-19T12:33:51;96421.91;;;18.29;66.57
57644;BME280;43474;46.510;6.686;2023-04-19T12:36:17;96407.97;;;18.03;71.66
57644;BME280;43474;46.510;6.686;2023-04-19T12:38:43;96399.88;;;18.08;70.34
57644;BME280;43474;46.510;6.686;2023-04-19T12:41:08;96400.97;;;17.78;71.53
57644;BME280;43474;46.510;6.686;2023-04-19T12:43:34;96405.84;;;17.71;70.62
57644;BME280;43474;46.510;6.686;2023-04-19T12:46:00;96399.09;;;17.79;72.11
57644;BME280;43474;46.510;6.686;2023-04-19T12:48:26;96384.53;;;17.90;70.46
57644;BME280;43474;46.510;6.686;2023-04-19T12:50:53;96398.09;;;17.99;69.47
57644;BME280;43474;46.510;6.686;2023-04-19T12:53:19;96393.06;;;17.92;73.36
57644;BME280;43474;46.510;6.686;2023-04-19T12:55:45;96366.72;;;17.75;71.18
57644;BME280;43474;46.510;6.686;2023-04-19T12:58:12;96369.63;;;18.03;70.43
57644;BME280;43474;46.510;6.686;2023-04-19T13:00:38;96375.38;;;18.39;72.34
57644;BME280;43474;46.510;6.686;2023-04-19T13:03:04;96366.22;;;18.21;72.12
57644;BME280;43474;46.510;6.686;2023-04-19T13:05:29;96360.66;;;18.13;70.25
57644;BME280;43474;46.510;6.686;2023-04-19T13:07:55;96355.06;;;18.33;67.63
57644;BME280;43474;46.510;6.686;2023-04-19T13:10:20;96350.38;;;18.20;71.36
57644;BME280;43474;46.510;6.686;2023-04-19T13:12:46;96359.13;;;18.06;72.54
57644;BME280;43474;46.510;6.686;2023-04-19T13:15:12;96347.50;;;18.16;73.59
57644;BME280;43474;46.510;6.686;2023-04-19T13:17:38;96332.06;;;18.27;74.41